Time;durP1;ratioP1;P1;durP2;ratioP2;P2;SDS_P1;SDS_P2;PMS_P1;PMS_P2;Temp;Humidity;BMP_temperature;BMP_pressure;BME280_temperature;BME280_humidity;BME280_pressure;Samples;Min_cycle;Max_cycle;Signal;HPM_P1;HPM_P2
2021/09/28 00:02:00;;;;;;;18.00;11.30;;;;;;;;;;5013454;28;20451;-61
2021/09/28 00:04:26;;;;;;;15.37;10.60;;;;;;;;;;5015308;28;20983;-61
2021/09/28 00:06:52;;;;;;;13.90;10.50;;;;;;;;;;5004458;28;20424;-62
2021/09/28 00:09:18;;;;;;;19.20;11.17;;;;;;;;;;4996917;28;20400;-61
2021/09/28 00:11:49;;;;;;;16.50;11.07;;;;;;;;;;5006462;28;20427;-61
2021/09/28 00:14:15;;;;;;;15.60;10.63;;;;;;;;;;5016486;28;20482;-61
2021/09/28 00:16:42;;;;;;;18.30;11.37;;;;;;;;;;5015177;28;20446;-61
2021/09/28 00:19:08;;;;;;;16.07;11.50;;;;;;;;;;5006563;28;20484;-60
2021/09/28 00:21:34;;;;;;;15.17;10.20;;;;;;;;;;5006753;28;20435;-60
2021/09/28 00:24:00;;;;;;;18.57;12.20;;;;;;;;;;5015439;28;20490;-61
2021/09/28 00:26:26;;;;;;;13.33;10.07;;;;;;;;;;5009169;28;20432;-61
2021/09/28 00:28:52;;;;;;;15.10;9.93;;;;;;;;;;4996138;28;20462;-61
2021/09/28 00:31:18;;;;;;;13.63;9.60;;;;;;;;;;5001228;28;20468;-61
2021/09/28 00:33:44;;;;;;;16.10;11.30;;;;;;;;;;5016068;28;20745;-61
2021/09/28 00:36:10;;;;;;;14.70;10.83;;;;;;;;;;5011607;28;20975;-60
2021/09/28 00:38:36;;;;;;;17.53;11.53;;;;;;;;;;5005192;28;20442;-58
2021/09/28 00:41:02;;;;;;;16.17;10.20;;;;;;;;;;5011668;28;20436;-61
2021/09/28 00:43:43;;;;;;;15.83;10.40;;;;;;;;;;4995617;28;20867;-60
2021/09/28 00:46:10;;;;;;;15.70;10.80;;;;;;;;;;4999100;28;20458;-61
2021/09/28 00:48:36;;;;;;;15.07;10.77;;;;;;;;;;5014881;28;20404;-61
2021/09/28 00:51:02;;;;;;;16.93;12.00;;;;;;;;;;5011572;28;20428;-59
2021/09/28 00:53:28;;;;;;;18.10;11.60;;;;;;;;;;5006464;28;20509;-60
2021/09/28 00:55:54;;;;;;;17.00;11.20;;;;;;;;;;5012807;28;20432;-62
2021/09/28 00:58:20;;;;;;;16.10;11.90;;;;;;;;;;5014132;28;20461;-61
2021/09/28 01:00:46;;;;;;;17.70;13.10;;;;;;;;;;5012937;28;20453;-60
2021/09/28 01:03:12;;;;;;;19.47;12.13;;;;;;;;;;5013438;28;20451;-60
2021/09/28 01:05:38;;;;;;;18.73;11.00;;;;;;;;;;5013626;28;20979;-60
2021/09/28 01:08:04;;;;;;;14.53;10.87;;;;;;;;;;5015627;28;20459;-60
2021/09/28 01:10:30;;;;;;;14.43;10.63;;;;;;;;;;5015937;28;20396;-63
2021/09/28 01:12:56;;;;;;;16.93;11.70;;;;;;;;;;5014819;28;20435;-61
2021/09/28 01:15:23;;;;;;;15.43;10.77;;;;;;;;;;5019524;28;20434;-61
2021/09/28 01:17:49;;;;;;;16.80;11.77;;;;;;;;;;5018260;28;20420;-61
2021/09/28 01:20:15;;;;;;;20.30;11.57;;;;;;;;;;5019564;28;20780;-61
2021/09/28 01:22:41;;;;;;;17.13;11.67;;;;;;;;;;5018810;28;20790;-61
2021/09/28 01:25:07;;;;;;;18.53;11.40;;;;;;;;;;5019705;28;20482;-61
2021/09/28 01:27:37;;;;;;;14.00;10.53;;;;;;;;;;5010184;28;20436;-61
2021/09/28 01:30:04;;;;;;;15.00;11.10;;;;;;;;;;5000060;28;20412;-61
2021/09/28 01:32:30;;;;;;;19.77;11.03;;;;;;;;;;5006832;28;20432;-60
2021/09/28 01:34:56;;;;;;;15.17;10.57;;;;;;;;;;5019975;28;20459;-61
2021/09/28 01:37:22;;;;;;;15.27;10.20;;;;;;;;;;5010875;28;20526;-61
2021/09/28 01:39:48;;;;;;;14.40;9.83;;;;;;;;;;5001428;28;20439;-61
2021/09/28 01:42:14;;;;;;;15.80;10.80;;;;;;;;;;5018423;28;20438;-61
2021/09/28 01:44:40;;;;;;;13.97;9.87;;;;;;;;;;5019399;28;20474;-61
2021/09/28 01:47:06;;;;;;;12.17;10.30;;;;;;;;;;5018332;28;20502;-61
2021/09/28 01:49:34;;;;;;;13.30;9.77;;;;;;;;;;5019275;28;20396;-61
2021/09/28 01:52:00;;;;;;;15.30;9.73;;;;;;;;;;5015666;28;20440;-61
2021/09/28 01:54:26;;;;;;;13.43;9.50;;;;;;;;;;5014676;28;20440;-61
2021/09/28 01:56:52;;;;;;;13.00;9.23;;;;;;;;;;4999860;28;20412;-62
2021/09/28 01:59:18;;;;;;;13.13;10.23;;;;;;;;;;5018377;28;20939;-60
2021/09/28 02:01:44;;;;;;;12.07;9.00;;;;;;;;;;5019092;28;20434;-62
2021/09/28 02:04:11;;;;;;;11.23;8.50;;;;;;;;;;5018786;28;20451;-61
2021/09/28 02:06:39;;;;;;;14.23;9.50;;;;;;;;;;5018156;28;20411;-61
2021/09/28 02:09:06;;;;;;;16.63;9.53;;;;;;;;;;5012619;28;20435;-60
2021/09/28 02:11:33;;;;;;;10.57;8.67;;;;;;;;;;5019009;28;20865;-61
2021/09/28 02:14:03;;;;;;;13.60;9.60;;;;;;;;;;5017029;28;20431;-61
2021/09/28 02:16:29;;;;;;;11.87;9.10;;;;;;;;;;5018740;28;20914;-61
2021/09/28 02:18:55;;;;;;;13.80;9.60;;;;;;;;;;5017028;28;20467;-61
2021/09/28 02:21:21;;;;;;;13.37;10.30;;;;;;;;;;5018661;28;20400;-61
2021/09/28 02:23:47;;;;;;;10.80;9.03;;;;;;;;;;5018039;28;20554;-61
2021/09/28 02:26:13;;;;;;;16.57;9.90;;;;;;;;;;5018133;28;20438;-61
2021/09/28 02:28:39;;;;;;;11.27;7.93;;;;;;;;;;5017722;28;20440;-61
2021/09/28 02:31:05;;;;;;;15.13;10.27;;;;;;;;;;5018185;28;20404;-61
2021/09/28 02:33:31;;;;;;;13.33;9.30;;;;;;;;;;5017289;28;21110;-61
2021/09/28 02:35:57;;;;;;;12.13;8.70;;;;;;;;;;5018545;28;20805;-61
2021/09/28 02:38:23;;;;;;;12.87;9.33;;;;;;;;;;5005192;28;20433;-61
2021/09/28 02:40:49;;;;;;;11.20;8.97;;;;;;;;;;4997985;28;20408;-61
2021/09/28 02:43:15;;;;;;;15.50;9.20;;;;;;;;;;5003608;28;20459;-61
2021/09/28 02:45:47;;;;;;;12.20;9.40;;;;;;;;;;5018097;28;20436;-61
2021/09/28 02:48:13;;;;;;;14.90;9.83;;;;;;;;;;4998767;28;20787;-61
2021/09/28 02:50:39;;;;;;;14.20;9.23;;;;;;;;;;4998307;28;20405;-61
2021/09/28 02:53:05;;;;;;;10.90;8.67;;;;;;;;;;5007639;28;20439;-61
2021/09/28 02:55:31;;;;;;;13.13;8.40;;;;;;;;;;5018033;28;20812;-61
2021/09/28 02:57:57;;;;;;;14.87;9.97;;;;;;;;;;5016836;28;20795;-60
2021/09/28 03:00:23;;;;;;;11.47;8.40;;;;;;;;;;5016649;28;20764;-61
2021/09/28 03:02:50;;;;;;;12.87;9.33;;;;;;;;;;5015709;28;20427;-60
2021/09/28 03:05:16;;;;;;;12.07;8.80;;;;;;;;;;5016654;28;20436;-60
2021/09/28 03:07:42;;;;;;;11.00;8.37;;;;;;;;;;5014380;28;20515;-59
2021/09/28 03:10:08;;;;;;;14.50;8.80;;;;;;;;;;5017487;28;20420;-61
2021/09/28 03:12:34;;;;;;;11.57;9.27;;;;;;;;;;5016480;28;20423;-61
2021/09/28 03:15:00;;;;;;;12.60;9.43;;;;;;;;;;5016987;28;20479;-61
2021/09/28 03:17:26;;;;;;;13.77;9.17;;;;;;;;;;5016244;28;20427;-61
2021/09/28 03:19:53;;;;;;;14.73;9.57;;;;;;;;;;5010655;28;20436;-61
2021/09/28 03:22:19;;;;;;;14.40;9.33;;;;;;;;;;5004617;28;20436;-62
2021/09/28 03:24:45;;;;;;;10.87;8.83;;;;;;;;;;4999898;28;20534;-61
2021/09/28 03:27:11;;;;;;;11.33;8.70;;;;;;;;;;4997977;28;20449;-61
2021/09/28 03:29:37;;;;;;;12.40;9.70;;;;;;;;;;5015735;28;20495;-61
2021/09/28 03:32:03;;;;;;;11.13;9.00;;;;;;;;;;5017231;28;20896;-61
2021/09/28 03:34:29;;;;;;;12.60;8.97;;;;;;;;;;4997044;28;20448;-61
2021/09/28 03:36:55;;;;;;;12.53;8.00;;;;;;;;;;4997149;28;20460;-60
2021/09/28 03:39:21;;;;;;;15.30;9.70;;;;;;;;;;5014559;28;20434;-61
2021/09/28 03:41:48;;;;;;;11.63;8.43;;;;;;;;;;5017271;28;20406;-61
2021/09/28 03:44:14;;;;;;;12.87;9.27;;;;;;;;;;5016052;28;20838;-61
2021/09/28 03:46:40;;;;;;;12.97;8.90;;;;;;;;;;5015039;28;20485;-62
2021/09/28 03:49:06;;;;;;;9.87;7.87;;;;;;;;;;5016477;28;20436;-61
2021/09/28 03:51:32;;;;;;;11.60;8.70;;;;;;;;;;5017057;28;20404;-61
2021/09/28 03:53:58;;;;;;;13.60;9.10;;;;;;;;;;5015592;28;20427;-61
2021/09/28 03:56:24;;;;;;;10.70;8.43;;;;;;;;;;5016982;28;20412;-61
2021/09/28 03:58:50;;;;;;;17.37;11.50;;;;;;;;;;5016133;28;20471;-61
2021/09/28 04:01:19;;;;;;;13.73;9.60;;;;;;;;;;5015620;28;20408;-61
2021/09/28 04:03:45;;;;;;;14.83;9.87;;;;;;;;;;5004215;28;20452;-61
2021/09/28 04:06:11;;;;;;;15.03;9.50;;;;;;;;;;4995038;28;20794;-61
2021/09/28 04:08:37;;;;;;;13.23;9.00;;;;;;;;;;4996946;28;20432;-61
2021/09/28 04:11:03;;;;;;;13.33;10.40;;;;;;;;;;4994195;28;20405;-61
2021/09/28 04:13:29;;;;;;;15.37;10.00;;;;;;;;;;5002455;28;20416;-60
2021/09/28 04:15:55;;;;;;;15.03;9.90;;;;;;;;;;5013932;28;20787;-61
2021/09/28 04:18:22;;;;;;;14.23;10.20;;;;;;;;;;5012907;28;20427;-60
2021/09/28 04:20:49;;;;;;;16.93;11.13;;;;;;;;;;5013711;28;20408;-60
2021/09/28 04:23:15;;;;;;;19.00;11.80;;;;;;;;;;5012605;28;20455;-61
2021/09/28 04:25:42;;;;;;;17.30;12.90;;;;;;;;;;5013195;28;20482;-60
2021/09/28 04:28:08;;;;;;;20.90;12.30;;;;;;;;;;4994603;28;20425;-59
2021/09/28 04:30:35;;;;;;;19.40;12.30;;;;;;;;;;4994391;28;20397;-60
2021/09/28 04:33:01;;;;;;;20.27;12.00;;;;;;;;;;4996876;28;20771;-60
2021/09/28 04:35:28;;;;;;;22.70;12.10;;;;;;;;;;5013707;28;20419;-60
2021/09/28 04:37:54;;;;;;;14.50;11.33;;;;;;;;;;5012653;28;20989;-61
2021/09/28 04:40:20;;;;;;;17.17;11.07;;;;;;;;;;5013400;28;20399;-61
2021/09/28 04:42:46;;;;;;;20.80;10.63;;;;;;;;;;5012314;28;20403;-61
2021/09/28 04:45:13;;;;;;;16.93;11.37;;;;;;;;;;5013278;28;20463;-61
2021/09/28 04:47:39;;;;;;;16.37;10.87;;;;;;;;;;5011443;28;20924;-61
2021/09/28 04:50:05;;;;;;;18.40;11.10;;;;;;;;;;4994310;28;20420;-61
2021/09/28 04:52:32;;;;;;;15.87;11.93;;;;;;;;;;4994101;28;20389;-61
2021/09/28 04:54:58;;;;;;;17.10;12.70;;;;;;;;;;5011582;28;20794;-61
2021/09/28 04:57:24;;;;;;;16.20;11.53;;;;;;;;;;5013562;28;20442;-61
2021/09/28 04:59:50;;;;;;;15.17;10.87;;;;;;;;;;5012156;28;20445;-60
2021/09/28 05:02:16;;;;;;;13.90;10.47;;;;;;;;;;5008315;28;20430;-61
2021/09/28 05:04:42;;;;;;;19.33;11.63;;;;;;;;;;5011977;28;20475;-60
2021/09/28 05:07:08;;;;;;;17.80;11.90;;;;;;;;;;5013436;28;20418;-61
2021/09/28 05:09:37;;;;;;;12.50;10.70;;;;;;;;;;4998343;28;20432;-61
2021/09/28 05:12:04;;;;;;;18.73;11.03;;;;;;;;;;4993907;28;20767;-60
2021/09/28 05:14:30;;;;;;;13.50;10.30;;;;;;;;;;4994601;28;21000;-61
2021/09/28 05:16:56;;;;;;;15.23;10.70;;;;;;;;;;4995168;28;20437;-59
2021/09/28 05:19:22;;;;;;;12.90;9.63;;;;;;;;;;5006723;28;20958;-60
2021/09/28 05:21:48;;;;;;;14.33;10.17;;;;;;;;;;5015253;28;20767;-61
2021/09/28 05:24:14;;;;;;;14.87;11.23;;;;;;;;;;5014030;28;20525;-61
2021/09/28 05:26:40;;;;;;;12.70;10.33;;;;;;;;;;5013581;28;20494;-63
2021/09/28 05:29:06;;;;;;;17.60;11.07;;;;;;;;;;5004087;28;20475;-60
2021/09/28 05:31:32;;;;;;;12.90;10.47;;;;;;;;;;4995679;28;20536;-61
2021/09/28 05:33:58;;;;;;;10.40;8.90;;;;;;;;;;4995191;28;20428;-61
2021/09/28 05:36:24;;;;;;;14.40;9.37;;;;;;;;;;4995795;28;20447;-61
2021/09/28 05:38:51;;;;;;;12.37;9.07;;;;;;;;;;4995825;28;20432;-61
2021/09/28 05:41:17;;;;;;;14.33;9.17;;;;;;;;;;4994871;28;20925;-61
2021/09/28 05:43:43;;;;;;;13.40;9.83;;;;;;;;;;4995831;28;20483;-61
2021/09/28 05:46:10;;;;;;;12.43;8.67;;;;;;;;;;4995514;28;20516;-62
2021/09/28 05:48:36;;;;;;;9.80;7.87;;;;;;;;;;4995854;28;20428;-60
2021/09/28 05:51:07;;;;;;;9.83;7.70;;;;;;;;;;4995206;28;20409;-60
2021/09/28 05:53:36;;;;;;;12.70;8.47;;;;;;;;;;4999927;28;20419;-61
2021/09/28 05:56:03;;;;;;;9.73;6.90;;;;;;;;;;5018681;28;20432;-60
2021/09/28 05:58:29;;;;;;;11.53;7.20;;;;;;;;;;5017179;28;20844;-60
2021/09/28 06:00:55;;;;;;;9.43;7.47;;;;;;;;;;5018551;28;20447;-61
2021/09/28 06:03:21;;;;;;;7.87;6.00;;;;;;;;;;5017750;28;20458;-61
2021/09/28 06:05:47;;;;;;;10.87;6.77;;;;;;;;;;5018539;28;20447;-61
2021/09/28 06:08:13;;;;;;;10.50;7.00;;;;;;;;;;5012787;28;20431;-63
2021/09/28 06:10:39;;;;;;;9.93;5.57;;;;;;;;;;5018506;28;20404;-61
2021/09/28 06:13:05;;;;;;;7.90;5.53;;;;;;;;;;5018371;28;20412;-61
2021/09/28 06:15:31;;;;;;;10.07;5.00;;;;;;;;;;5016668;28;20447;-61
2021/09/28 06:17:57;;;;;;;8.37;5.57;;;;;;;;;;5016017;28;20492;-63
2021/09/28 06:20:23;;;;;;;7.60;5.67;;;;;;;;;;5018323;28;20427;-61
2021/09/28 06:22:49;;;;;;;7.67;5.37;;;;;;;;;;5019134;28;20426;-61
2021/09/28 06:25:15;;;;;;;7.23;5.30;;;;;;;;;;5018027;28;20960;-61
2021/09/28 06:27:42;;;;;;;7.10;4.50;;;;;;;;;;5019037;28;20467;-61
2021/09/28 06:30:08;;;;;;;4.93;3.97;;;;;;;;;;5017871;28;20460;-62
2021/09/28 06:32:34;;;;;;;4.63;3.73;;;;;;;;;;4999596;28;20431;-61
2021/09/28 06:35:00;;;;;;;4.00;3.10;;;;;;;;;;4998621;28;20467;-61
2021/09/28 06:37:26;;;;;;;4.70;3.10;;;;;;;;;;4999793;28;20401;-61
2021/09/28 06:39:52;;;;;;;4.90;3.00;;;;;;;;;;5011557;28;20434;-61
2021/09/28 06:42:18;;;;;;;5.13;2.07;;;;;;;;;;5003127;28;20432;-60
2021/09/28 06:44:44;;;;;;;3.33;2.20;;;;;;;;;;4999198;28;20821;-61
2021/09/28 06:47:10;;;;;;;3.47;2.30;;;;;;;;;;4999260;28;20768;-61
2021/09/28 06:49:36;;;;;;;2.30;1.60;;;;;;;;;;4998697;28;20428;-61
2021/09/28 06:52:03;;;;;;;2.20;1.50;;;;;;;;;;4998643;28;20429;-60
2021/09/28 06:54:29;;;;;;;3.70;1.53;;;;;;;;;;5006597;28;20506;-60
2021/09/28 06:56:55;;;;;;;3.37;1.77;;;;;;;;;;5018324;28;20442;-63
2021/09/28 06:59:21;;;;;;;4.07;1.67;;;;;;;;;;5013207;28;20478;-63
2021/09/28 07:01:47;;;;;;;8.70;2.10;;;;;;;;;;5008219;28;20428;-61
2021/09/28 07:04:13;;;;;;;1.67;1.20;;;;;;;;;;5011862;28;20494;-61
2021/09/28 07:06:39;;;;;;;2.27;1.63;;;;;;;;;;5015428;28;20415;-61
2021/09/28 07:09:05;;;;;;;4.80;1.40;;;;;;;;;;5007773;28;20416;-60
2021/09/28 07:11:31;;;;;;;2.20;1.10;;;;;;;;;;5007558;28;20467;-62
2021/09/28 07:13:57;;;;;;;3.00;1.10;;;;;;;;;;5006747;28;20451;-63
2021/09/28 07:16:23;;;;;;;2.90;0.97;;;;;;;;;;5012802;28;20835;-63
2021/09/28 07:18:49;;;;;;;2.80;1.10;;;;;;;;;;5008098;28;20440;-62
2021/09/28 07:21:16;;;;;;;1.50;0.80;;;;;;;;;;5004867;28;20435;-60
2021/09/28 07:23:42;;;;;;;1.40;0.73;;;;;;;;;;5011966;28;20447;-61
2021/09/28 07:26:08;;;;;;;2.10;0.83;;;;;;;;;;5009717;28;20471;-61
2021/09/28 07:28:35;;;;;;;2.67;1.43;;;;;;;;;;5012762;28;20479;-60
2021/09/28 07:31:01;;;;;;;2.43;1.40;;;;;;;;;;5013461;28;20428;-62
2021/09/28 07:33:27;;;;;;;1.87;1.13;;;;;;;;;;5015515;28;20438;-61
2021/09/28 07:35:53;;;;;;;2.17;1.30;;;;;;;;;;5013955;28;20460;-63
2021/09/28 07:38:19;;;;;;;3.80;1.43;;;;;;;;;;5014484;28;20504;-60
2021/09/28 07:40:47;;;;;;;1.97;1.10;;;;;;;;;;5012664;28;21002;-60
2021/09/28 07:43:13;;;;;;;3.90;1.50;;;;;;;;;;5013206;28;20569;-62
2021/09/28 07:45:39;;;;;;;1.50;1.00;;;;;;;;;;5009429;28;20448;-61
2021/09/28 07:48:05;;;;;;;5.60;1.70;;;;;;;;;;5011270;28;20431;-62
2021/09/28 07:50:31;;;;;;;2.00;1.40;;;;;;;;;;5011803;28;20438;-62
2021/09/28 07:52:58;;;;;;;2.10;1.20;;;;;;;;;;5012065;28;20499;-61
2021/09/28 07:55:25;;;;;;;2.10;1.27;;;;;;;;;;5015593;28;20851;-61
2021/09/28 07:57:51;;;;;;;1.80;1.10;;;;;;;;;;5013027;28;20868;-62
2021/09/28 08:00:17;;;;;;;1.90;1.20;;;;;;;;;;5009701;28;20427;-62
2021/09/28 08:02:43;;;;;;;2.83;1.50;;;;;;;;;;5012615;28;20747;-60
2021/09/28 08:05:10;;;;;;;3.90;1.40;;;;;;;;;;5009864;28;20466;-61
2021/09/28 08:07:38;;;;;;;1.60;1.20;;;;;;;;;;5013903;28;20488;-61
2021/09/28 08:10:05;;;;;;;1.73;1.20;;;;;;;;;;5009644;28;20420;-60
2021/09/28 08:12:31;;;;;;;1.67;1.00;;;;;;;;;;5012115;28;20443;-61
2021/09/28 08:14:57;;;;;;;2.37;1.27;;;;;;;;;;5018561;28;20546;-63
2021/09/28 08:17:23;;;;;;;4.40;1.30;;;;;;;;;;5011933;28;20942;-60
2021/09/28 08:19:49;;;;;;;2.90;1.10;;;;;;;;;;5016356;28;20432;-61
2021/09/28 08:22:16;;;;;;;1.70;1.27;;;;;;;;;;5014260;28;20428;-61
2021/09/28 08:24:43;;;;;;;1.83;1.27;;;;;;;;;;5007459;28;20879;-62
2021/09/28 08:29:59;;;;;;;1.87;1.13;;;;;;;;;;5016546;28;20488;-62
2021/09/28 08:32:26;;;;;;;2.07;1.00;;;;;;;;;;5015520;28;20461;-61
2021/09/28 08:34:52;;;;;;;1.57;0.90;;;;;;;;;;5011747;28;20473;-61
2021/09/28 08:37:18;;;;;;;2.80;1.27;;;;;;;;;;5011496;28;20557;-61
2021/09/28 08:39:45;;;;;;;3.77;1.03;;;;;;;;;;5013105;28;20435;-61
2021/09/28 08:42:11;;;;;;;1.40;0.90;;;;;;;;;;5012871;28;20888;-62
2021/09/28 08:44:38;;;;;;;1.60;0.90;;;;;;;;;;5012895;28;20994;-61
2021/09/28 08:47:04;;;;;;;1.80;1.10;;;;;;;;;;5011139;28;20435;-62
2021/09/28 08:49:30;;;;;;;2.40;1.10;;;;;;;;;;5012674;28;20420;-61
2021/09/28 08:51:57;;;;;;;1.73;1.17;;;;;;;;;;5011821;28;20450;-61
2021/09/28 08:54:23;;;;;;;2.67;1.10;;;;;;;;;;5012812;28;21036;-61
2021/09/28 08:56:49;;;;;;;2.57;1.20;;;;;;;;;;5012770;28;20530;-62
2021/09/28 08:59:15;;;;;;;2.23;1.27;;;;;;;;;;5012664;28;20426;-62
2021/09/28 09:01:56;;;;;;;2.97;1.80;;;;;;;;;;5010926;28;20419;-61
2021/09/28 09:04:23;;;;;;;2.07;1.43;;;;;;;;;;5009065;28;20481;-62
2021/09/28 09:06:50;;;;;;;2.17;1.50;;;;;;;;;;5011641;28;20503;-60
2021/09/28 09:09:16;;;;;;;2.60;1.53;;;;;;;;;;5009917;28;20534;-60
2021/09/28 09:11:44;;;;;;;3.00;1.40;;;;;;;;;;5009281;28;20423;-61
2021/09/28 09:14:23;;;;;;;3.20;2.10;;;;;;;;;;5007220;28;20523;-62
2021/09/28 09:16:50;;;;;;;2.60;1.67;;;;;;;;;;5010625;28;20457;-62
2021/09/28 09:19:22;;;;;;;2.37;1.50;;;;;;;;;;5010645;28;20435;-59
2021/09/28 09:21:48;;;;;;;2.17;1.20;;;;;;;;;;5007523;28;20462;-62
2021/09/28 09:24:33;;;;;;;2.20;1.53;;;;;;;;;;5010437;28;20586;-62
2021/09/28 09:26:59;;;;;;;5.20;1.50;;;;;;;;;;5009444;28;20470;-61
2021/09/28 09:29:25;;;;;;;2.63;1.60;;;;;;;;;;5011770;28;20435;-60
2021/09/28 09:31:54;;;;;;;4.33;1.50;;;;;;;;;;5017297;28;20415;-61
2021/09/28 09:34:21;;;;;;;2.50;1.37;;;;;;;;;;5012621;28;20443;-60
2021/09/28 09:37:01;;;;;;;2.73;1.30;;;;;;;;;;5016322;28;20928;-61
2021/09/28 09:39:28;;;;;;;1.70;1.10;;;;;;;;;;5015965;28;20419;-60
2021/09/28 09:42:05;;;;;;;1.63;1.00;;;;;;;;;;5016469;28;20856;-60
2021/09/28 09:44:31;;;;;;;3.07;1.40;;;;;;;;;;5015116;28;20725;-59
2021/09/28 09:47:00;;;;;;;2.23;1.50;;;;;;;;;;5016751;28;20415;-60
2021/09/28 09:49:28;;;;;;;2.87;1.40;;;;;;;;;;5011853;28;20428;-61
2021/09/28 09:51:56;;;;;;;2.30;1.37;;;;;;;;;;5015335;28;20431;-60
2021/09/28 09:54:36;;;;;;;2.27;1.40;;;;;;;;;;5015002;28;20450;-62
2021/09/28 09:57:04;;;;;;;2.83;1.63;;;;;;;;;;5021493;28;20923;-60
2021/09/28 09:59:30;;;;;;;4.47;1.57;;;;;;;;;;5015818;28;20807;-60
2021/09/28 10:01:56;;;;;;;2.27;1.60;;;;;;;;;;5016916;28;20957;-64
2021/09/28 10:04:24;;;;;;;3.50;1.47;;;;;;;;;;5014897;28;20479;-61
2021/09/28 10:06:51;;;;;;;1.90;1.43;;;;;;;;;;5011718;28;20426;-64
2021/09/28 10:09:21;;;;;;;2.83;1.63;;;;;;;;;;5017742;28;20431;-60
2021/09/28 10:11:51;;;;;;;2.93;1.70;;;;;;;;;;5015556;28;20430;-60
2021/09/28 10:14:36;;;;;;;3.20;1.43;;;;;;;;;;5027454;28;20531;-60
2021/09/28 10:17:22;;;;;;;2.20;1.70;;;;;;;;;;5013739;28;20424;-62
2021/09/28 10:19:50;;;;;;;2.20;1.50;;;;;;;;;;5000471;28;20444;-61
2021/09/28 10:22:36;;;;;;;2.73;2.00;;;;;;;;;;5006921;28;20435;-60
2021/09/28 10:27:52;;;;;;;3.27;1.70;;;;;;;;;;5011617;28;20737;-62
2021/09/28 10:30:34;;;;;;;2.43;1.90;;;;;;;;;;5012116;28;20432;-61
2021/09/28 10:33:01;;;;;;;2.23;1.70;;;;;;;;;;5013674;28;20420;-62
2021/09/28 10:35:28;;;;;;;3.47;1.67;;;;;;;;;;5012881;28;20971;-61
2021/09/28 10:37:54;;;;;;;3.13;1.97;;;;;;;;;;5010984;28;20440;-62
2021/09/28 10:40:20;;;;;;;2.43;1.77;;;;;;;;;;5015283;28;20573;-60
2021/09/28 10:42:50;;;;;;;2.33;1.70;;;;;;;;;;5014314;28;20430;-61
2021/09/28 10:45:20;;;;;;;2.40;1.80;;;;;;;;;;5012086;28;20741;-61
2021/09/28 10:47:47;;;;;;;3.00;1.93;;;;;;;;;;5012302;28;20753;-60
2021/09/28 10:50:24;;;;;;;2.00;1.60;;;;;;;;;;5015051;28;20450;-59
2021/09/28 10:52:51;;;;;;;3.07;1.73;;;;;;;;;;5016345;28;20783;-60
2021/09/28 10:55:18;;;;;;;2.50;1.70;;;;;;;;;;5014060;28;22584;-62
2021/09/28 10:58:15;;;;;;;4.80;2.40;;;;;;;;;;5013697;28;20442;-62
2021/09/28 11:00:41;;;;;;;2.20;1.40;;;;;;;;;;5010225;28;20422;-61
2021/09/28 11:03:11;;;;;;;7.13;2.63;;;;;;;;;;5010722;28;20423;-60
2021/09/28 11:06:05;;;;;;;2.73;2.10;;;;;;;;;;5004655;28;20955;-61
2021/09/28 11:08:35;;;;;;;6.97;2.57;;;;;;;;;;5012408;28;20423;-62
2021/09/28 11:11:01;;;;;;;3.40;2.50;;;;;;;;;;5012129;28;20787;-62
2021/09/28 11:13:29;;;;;;;4.20;2.63;;;;;;;;;;5019930;28;20420;-61
2021/09/28 11:15:58;;;;;;;2.60;2.27;;;;;;;;;;5013897;28;20546;-63
2021/09/28 11:18:24;;;;;;;4.57;3.00;;;;;;;;;;5008264;28;20558;-61
2021/09/28 11:20:50;;;;;;;4.53;2.77;;;;;;;;;;5015736;28;20431;-60
2021/09/28 11:23:16;;;;;;;3.07;2.10;;;;;;;;;;5011159;28;20423;-62
2021/09/28 11:25:51;;;;;;;6.63;3.80;;;;;;;;;;5014209;28;20971;-59
2021/09/28 11:28:18;;;;;;;3.77;2.90;;;;;;;;;;5014353;28;20441;-60
2021/09/28 11:30:56;;;;;;;5.23;3.20;;;;;;;;;;5005867;28;20885;-61
2021/09/28 11:33:23;;;;;;;4.30;3.53;;;;;;;;;;5017351;28;20431;-61
2021/09/28 11:36:15;;;;;;;4.27;2.73;;;;;;;;;;5016849;28;20470;-59
2021/09/28 11:38:44;;;;;;;5.07;3.50;;;;;;;;;;5029819;28;20467;-61
2021/09/28 11:41:11;;;;;;;4.40;3.33;;;;;;;;;;5010963;28;20803;-60
2021/09/28 11:43:38;;;;;;;4.00;2.87;;;;;;;;;;5020496;28;20479;-62
2021/09/28 11:46:07;;;;;;;3.43;3.00;;;;;;;;;;5013518;28;20479;-63
2021/09/28 11:48:39;;;;;;;4.90;2.73;;;;;;;;;;5010988;28;20460;-62
2021/09/28 11:51:06;;;;;;;5.50;3.13;;;;;;;;;;5010867;28;20458;-61
2021/09/28 11:53:37;;;;;;;8.93;6.23;;;;;;;;;;5012695;28;20999;-61
2021/09/28 11:56:03;;;;;;;9.27;2.70;;;;;;;;;;5013329;28;20546;-60
2021/09/28 11:58:32;;;;;;;3.10;2.43;;;;;;;;;;5016447;28;20754;-60
2021/09/28 12:00:58;;;;;;;3.60;1.90;;;;;;;;;;5015305;28;20534;-61
2021/09/28 12:03:26;;;;;;;2.83;2.20;;;;;;;;;;5011433;28;20427;-61
2021/09/28 12:08:24;;;;;;;3.00;2.23;;;;;;;;;;5013574;28;20419;-60
2021/09/28 12:10:52;;;;;;;3.80;2.40;;;;;;;;;;5012972;28;20423;-60
2021/09/28 12:13:23;;;;;;;4.83;2.90;;;;;;;;;;5017269;28;21326;-61
2021/09/28 12:15:58;;;;;;;4.20;2.27;;;;;;;;;;5013248;28;20463;-59
2021/09/28 12:18:24;;;;;;;2.40;1.83;;;;;;;;;;5014397;28;20431;-61
2021/09/28 12:20:50;;;;;;;3.40;2.17;;;;;;;;;;5012617;28;20915;-60
2021/09/28 12:23:16;;;;;;;4.13;2.20;;;;;;;;;;5013669;28;20434;-61
2021/09/28 12:25:44;;;;;;;3.83;1.90;;;;;;;;;;5015028;28;20454;-62
2021/09/28 12:28:17;;;;;;;6.43;4.73;;;;;;;;;;5016623;28;20443;-61
2021/09/28 12:30:50;;;;;;;2.53;1.87;;;;;;;;;;5010182;28;20447;-61
2021/09/28 12:33:17;;;;;;;3.57;3.00;;;;;;;;;;5010500;28;20437;-60
2021/09/28 12:35:43;;;;;;;3.43;2.43;;;;;;;;;;5012192;28;20438;-61
2021/09/28 12:38:13;;;;;;;4.20;2.10;;;;;;;;;;5011492;28;20474;-62
2021/09/28 12:40:42;;;;;;;2.87;2.00;;;;;;;;;;5012725;28;20423;-62
2021/09/28 12:43:13;;;;;;;5.30;2.93;;;;;;;;;;5012776;28;20486;-60
2021/09/28 12:45:45;;;;;;;5.83;2.63;;;;;;;;;;5010774;28;20459;-62
2021/09/28 12:48:12;;;;;;;3.90;2.37;;;;;;;;;;5009953;28;20489;-60
2021/09/28 12:50:40;;;;;;;5.40;3.17;;;;;;;;;;5012298;28;20860;-60
2021/09/28 12:53:11;;;;;;;3.57;2.80;;;;;;;;;;5010906;28;20463;-60
2021/09/28 12:55:38;;;;;;;7.77;3.10;;;;;;;;;;5012120;28;20451;-60
2021/09/28 12:58:07;;;;;;;4.40;3.00;;;;;;;;;;5009964;28;20438;-60
2021/09/28 13:00:34;;;;;;;4.10;3.50;;;;;;;;;;5010121;28;20424;-62
2021/09/28 13:03:02;;;;;;;2.40;1.93;;;;;;;;;;5010408;28;20443;-59
2021/09/28 13:05:31;;;;;;;2.80;2.00;;;;;;;;;;5015132;28;20483;-60
2021/09/28 13:07:57;;;;;;;4.30;2.80;;;;;;;;;;5013674;28;20459;-62
2021/09/28 13:10:23;;;;;;;3.40;2.50;;;;;;;;;;5009212;28;20803;-59
2021/09/28 13:12:50;;;;;;;6.00;2.97;;;;;;;;;;5018415;28;20419;-60
2021/09/28 13:15:20;;;;;;;5.33;3.20;;;;;;;;;;5012818;28;20455;-62
2021/09/28 13:17:47;;;;;;;5.93;4.30;;;;;;;;;;5014110;28;20529;-58
2021/09/28 13:20:13;;;;;;;6.50;4.43;;;;;;;;;;5012223;28;20459;-59
2021/09/28 13:22:40;;;;;;;4.77;3.80;;;;;;;;;;5016222;28;21025;-60
2021/09/28 13:25:07;;;;;;;4.33;3.40;;;;;;;;;;5011666;28;20802;-61
2021/09/28 13:27:33;;;;;;;7.83;4.10;;;;;;;;;;5011415;28;20511;-60
2021/09/28 13:29:59;;;;;;;7.40;3.30;;;;;;;;;;5012824;28;20440;-61
2021/09/28 13:32:26;;;;;;;6.63;4.17;;;;;;;;;;5016242;28;20936;-61
2021/09/28 13:34:54;;;;;;;4.60;3.30;;;;;;;;;;5016435;28;20440;-61
2021/09/28 13:37:23;;;;;;;4.50;3.40;;;;;;;;;;5010840;28;20424;-60
2021/09/28 13:39:49;;;;;;;8.03;3.47;;;;;;;;;;5013774;28;20967;-60
2021/09/28 13:42:15;;;;;;;3.90;3.17;;;;;;;;;;5015678;28;20458;-60
2021/09/28 13:44:41;;;;;;;4.50;2.70;;;;;;;;;;5015521;28;20493;-60
2021/09/28 13:47:07;;;;;;;5.93;3.37;;;;;;;;;;5014311;28;20521;-62
2021/09/28 13:49:33;;;;;;;7.40;4.27;;;;;;;;;;5015604;28;20896;-59
2021/09/28 13:51:59;;;;;;;3.73;2.70;;;;;;;;;;5011276;28;20474;-61
2021/09/28 13:54:26;;;;;;;6.10;2.90;;;;;;;;;;5012081;28;20526;-60
2021/09/28 13:56:52;;;;;;;4.33;2.70;;;;;;;;;;5011906;28;20424;-59
2021/09/28 13:59:18;;;;;;;3.47;2.97;;;;;;;;;;5012505;28;20443;-64
2021/09/28 14:01:44;;;;;;;3.60;2.63;;;;;;;;;;5015532;28;20514;-62
2021/09/28 14:04:10;;;;;;;5.03;3.13;;;;;;;;;;5016535;28;20525;-61
2021/09/28 14:06:36;;;;;;;7.63;3.27;;;;;;;;;;5006142;28;20919;-63
2021/09/28 14:09:02;;;;;;;4.60;3.20;;;;;;;;;;5011130;28;20791;-63
2021/09/28 14:11:28;;;;;;;4.70;3.23;;;;;;;;;;5011814;28;20441;-62
2021/09/28 14:13:54;;;;;;;8.50;3.20;;;;;;;;;;5010833;28;20474;-62
2021/09/28 14:16:21;;;;;;;3.23;2.83;;;;;;;;;;5013878;28;21017;-62
2021/09/28 14:18:48;;;;;;;6.30;3.40;;;;;;;;;;5012279;28;20808;-60
2021/09/28 14:21:14;;;;;;;5.00;3.53;;;;;;;;;;5016049;28;20915;-58
2021/09/28 14:23:40;;;;;;;4.40;2.83;;;;;;;;;;5016545;28;20471;-62
2021/09/28 14:26:06;;;;;;;6.50;3.63;;;;;;;;;;5013913;28;20779;-62
2021/09/28 14:28:33;;;;;;;5.20;3.57;;;;;;;;;;5014337;28;20766;-59
2021/09/28 14:30:59;;;;;;;6.23;4.10;;;;;;;;;;5012202;28;20482;-58
2021/09/28 14:33:25;;;;;;;9.37;3.63;;;;;;;;;;5014046;28;20436;-62
2021/09/28 14:35:52;;;;;;;4.17;3.50;;;;;;;;;;5015137;28;20454;-60
2021/09/28 14:38:18;;;;;;;5.03;3.47;;;;;;;;;;5014193;28;20439;-58
2021/09/28 14:40:44;;;;;;;5.90;3.63;;;;;;;;;;5011688;28;20456;-61
2021/09/28 14:43:10;;;;;;;4.53;3.30;;;;;;;;;;5014932;28;20451;-60
2021/09/28 14:45:36;;;;;;;5.23;3.70;;;;;;;;;;5013155;28;20849;-61